Weather at Muqeible Airfield [CLOSED]

Public forecast

Using degrees Celsius for public forecast. Weather courtesy of forecast.io.

Closest aviation weather report (METAR) to Muqeible Airfield

Closest report is Haifa International Airport, 22.2 nm (41.1 km) NW. Retrieved 2021/10/22 08:50 UTC (44 minutes ago):

LLHA 220850Z 34008KT CAVOK 26/15 Q1018 RMK FEW060

Closest aviation forecast (TAF) to Muqeible Airfield

Closest forecast is Haifa International Airport, 22.2 nm (41.1 km) NW. Retrieved 2021/10/22 06:00 UTC (4 hours ago):

TAF LLHA 220509Z 2206/2306 VRB03KT CAVOK BECMG 2207/2209 34015KT PROB30 TEMPO 2209/2218 34020G30KT BECMG 2218/2220 35008KT 9999 FEW030 TX27/2210Z TN22/2303Z